17:42
Airports
History
Links
Donate
Help keep this website running!
PayPal
Bitcoin
This page is community maintained. The information is intended for PC simulator navigation or reference.
Always use approved charts for navigation.
VIDX
HINDON
HINDON (VIDX)
Ghaziabad, Uttar Pradesh, India (201004)
(U)
Lat/Lng:28° 42' 27.74" N / 77° 21' 32.09" E
28.707705 / 77.358913
Elevation:700'ft / 213mMSL
ID / ICAO:VIDX
Runways:1
Longest:09-27
Asphalt 2,736m / 8,976ft
Nearby Weather13:00 GMT 2017-09-21
Nearby weather at VIDD, SAFDARJUNG located 12.6 nautical miles from VIDX
Altimeter: 29.59
Visibility: 2.5 statute miles
Wind: 5 knots (from 160°)
Temp: 32°c / 90°f
Humidity: 66.6%

METAR: VIDD 211300Z 16005KT 4000 HZ SCT035 BKN100 32/25 Q1002 NOSIG

(Powered by phpweather)
Nearby VORs <50NM
Nearby NDBs
Runway 09 / 27
Dimensions:2735.9 x 45.7m 8976' x 150'ft
Surface:Asphalt
Edge Lights:Low intensity
Runway 09 [A]Runway 27 [B]
Heading:090°TH 270°TH
Lat:
Lng:
28° 42' 28.01"N
77° 20' 41.57"E
28° 42' 27.46"N
77° 22' 22.6"E
TDZ:Yes, lighted
User Notes and Comments
28° 42' 27.74" N / 77° 21' 32.09" E
Distance To
Airport ID:
Nearby Airports
(C) SAFDARJUNG 12.6 NM
VIDD ( WX ) SW 227°
(C) INDIRA GANDHI INTL 18.4 NM
VIDP ( WX ) WSW 237°
(U) MEERUT SW 23.6 NM
VA2B NE 54°
(U) BHIWANI 72.0 NM
VIBW W 277°
(U) KARNAL 72.2 NM
VI40 NNW 344°
(U) BHILWARA 82.6 NM
VI20 WSW 238°
(U) SARSAWA 89.0 NM
VISP N
VFR Chart
Flight Planning at SkyVector.com